Auk-Alfa, Netherlands

5:42 PM CEST on August 29, 2014 (GMT +0200)
Ekofisk | Change Station
CLOSE
Current Station
Airport
Location: Ekofisk,
Elevation: 10 ft
Nearby Weather Stations

Elev 10 ft 56.55 °N, 3.25 °E | Updated 22 minutes ago

Light Rain Showers
Light Showers Rain
59 °F
Feels Like 59 °F
N
24
Wind Variable Wind from South

Today
High -- | Low -- °F
--% Chance of Precip.
Yesterday
High -- | Low -- °F
Precip. -- in
6:48 AM 8:55 PM
Waxing Crescent, 15% visible
Pressure 29.74 in
Visibility 6.2 miles
Clouds Few 1000 ft
Mostly Cloudy 6000 ft
Dew Point 55 °F
Humidity 88%
Rainfall 0.00 in
Snow Depth Not available.
UV 2 out of 12
Pollen Not available.
Air Quality Not available.
Flu Activity Not available.
METAR ENEK 291520Z 17021KT 9999 -SHRA FEW010 BKN060 15/13 Q1007 W15/S3

More Conditions Fewer Conditions

Pressure 29.74 in
Visibility 6.2 miles
Clouds Few 1000 ft
Mostly Cloudy 6000 ft
Dew Point 55 °F
Humidity 88%
Rainfall 0.00 in
Snow Depth Not available.
UV 2 out of 12
Pollen Not available.
Air Quality Not available.
Flu Activity Not available.
METAR ENEK 291520Z 17021KT 9999 -SHRA FEW010 BKN060 15/13 Q1007 W15/S3

More Conditions Fewer Conditions

10-Day Weather Forecast

Almanac

Astronomy

Aug. 29, 2014 Rise Set
Actual Time 6:48 AM CEST 8:55 PM CEST
Civil Twilight 6:08 AM CEST 9:35 PM CEST
Nautical Twilight 5:16 AM CEST 10:26 PM CEST
Astronomical Twilight 4:14 AM CEST 11:28 PM CEST
Moon 11:11 AM CEST 9:52 PM CEST
Length of Visible Light 15h 27m
Length of Day
14h 06m
Tomorrow will be 4m 35s shorter.
Waxing Crescent, 15% of the Moon is Illuminated
Today
Waxing Crescent
Sep 2
First Quarter
Sep 8
Full
Sep 15
Last Quarter
Sep 24
New

Today's Extremes

Country Highs Country Lows

Community

WunderPhotos

Upload Photos

1,748,268 photos uploaded!

Nearby

Snow Depth

Not available.

Earthquake Activity

City Distance Mag. Time & Date
No recent earthquake activity has been reported nearby.
Minimum magnitude displayed is 2.5.

Coastal Water Temperatures

Place Temperature
No Stations Reporting

Nearby Weather Stations